createdAt,value
2018-12-19T00:01:12.907Z,1.20
2018-12-19T00:03:41.341Z,1.30
2018-12-19T00:06:09.718Z,1.10
2018-12-19T00:08:38.090Z,1.13
2018-12-19T00:11:06.452Z,1.10
2018-12-19T00:13:34.802Z,0.90
2018-12-19T00:16:03.158Z,1.20
2018-12-19T00:18:31.527Z,1.00
2018-12-19T00:20:59.915Z,1.30
2018-12-19T00:23:28.291Z,1.27
2018-12-19T00:25:56.654Z,1.20
2018-12-19T00:28:25.012Z,0.90
2018-12-19T00:30:53.402Z,1.20
2018-12-19T00:33:21.820Z,1.23
2018-12-19T00:35:50.195Z,1.30
2018-12-19T00:38:18.535Z,1.07
2018-12-19T00:40:46.918Z,1.00
2018-12-19T00:43:15.295Z,1.10
2018-12-19T00:45:43.671Z,1.20
2018-12-19T00:48:12.026Z,1.37
2018-12-19T00:50:40.383Z,1.10
2018-12-19T00:53:08.730Z,1.30
2018-12-19T00:55:37.087Z,1.10
2018-12-19T00:58:05.446Z,1.27
2018-12-19T01:00:33.804Z,1.13
2018-12-19T01:03:02.166Z,1.40
2018-12-19T01:05:30.546Z,0.93
2018-12-19T01:07:58.907Z,1.17
2018-12-19T01:10:27.272Z,1.10
2018-12-19T01:12:55.632Z,1.30
2018-12-19T01:15:23.975Z,0.93
2018-12-19T01:17:52.332Z,1.13
2018-12-19T01:20:20.676Z,1.30
2018-12-19T01:22:49.050Z,1.10
2018-12-19T01:25:17.419Z,1.10
2018-12-19T01:27:45.799Z,1.10
2018-12-19T01:30:14.177Z,0.90
2018-12-19T01:32:42.546Z,1.20
2018-12-19T01:35:10.904Z,1.10
2018-12-19T01:37:39.260Z,1.10
2018-12-19T01:40:07.641Z,1.00
2018-12-19T01:42:35.994Z,1.17
2018-12-19T01:45:04.620Z,1.10
2018-12-19T01:47:32.977Z,1.10
2018-12-19T01:50:01.327Z,1.20
2018-12-19T01:52:29.681Z,1.33
2018-12-19T01:54:58.039Z,1.03
2018-12-19T01:57:26.402Z,1.27
2018-12-19T01:59:54.763Z,1.30
2018-12-19T02:02:23.097Z,1.00
2018-12-19T02:04:51.470Z,1.20
2018-12-19T02:07:19.807Z,1.27
2018-12-19T02:09:48.162Z,1.00
2018-12-19T02:12:16.533Z,1.00
2018-12-19T02:14:44.903Z,0.90
2018-12-19T02:17:13.278Z,1.20
2018-12-19T02:19:41.679Z,1.20
2018-12-19T02:22:10.148Z,1.10
2018-12-19T02:24:38.491Z,1.10
2018-12-19T02:27:06.846Z,1.23
2018-12-19T02:29:35.237Z,1.27
2018-12-19T02:32:07.799Z,1.10
2018-12-19T02:34:36.279Z,1.00
2018-12-19T02:37:04.649Z,1.10
2018-12-19T02:39:36.305Z,1.00
2018-12-19T02:42:03.394Z,0.93
2018-12-19T02:44:31.748Z,1.17
2018-12-19T02:47:00.121Z,1.20
2018-12-19T02:49:28.472Z,1.00
2018-12-19T02:51:56.838Z,1.20
2018-12-19T02:54:25.298Z,1.30
2018-12-19T02:56:53.658Z,1.00
2018-12-19T02:59:22.014Z,1.00
2018-12-19T03:01:50.346Z,1.43
2018-12-19T03:04:18.721Z,1.20
2018-12-19T03:06:47.071Z,1.17
2018-12-19T03:09:15.430Z,1.00
2018-12-19T03:11:43.791Z,1.50
2018-12-19T03:14:12.159Z,1.30
2018-12-19T03:16:40.525Z,1.10
2018-12-19T03:19:08.914Z,1.30
2018-12-19T03:21:37.288Z,1.00
2018-12-19T03:24:05.657Z,1.20
2018-12-19T03:26:34.023Z,0.90
2018-12-19T03:29:02.367Z,0.90
2018-12-19T03:31:30.713Z,1.10
2018-12-19T03:33:59.068Z,1.00
2018-12-19T03:36:28.391Z,1.20
2018-12-19T03:38:56.735Z,1.17
2018-12-19T03:41:25.195Z,1.00
2018-12-19T03:43:53.539Z,0.93
2018-12-19T03:46:21.872Z,1.23
2018-12-19T03:48:56.386Z,0.93
2018-12-19T03:51:24.730Z,1.20
2018-12-19T03:53:53.390Z,1.40
2018-12-19T03:56:22.002Z,1.20
2018-12-19T03:58:50.559Z,1.00
2018-12-19T04:01:18.914Z,1.00
2018-12-19T04:03:47.267Z,0.90
2018-12-19T04:06:15.686Z,1.30
2018-12-19T04:08:44.062Z,1.03
2018-12-19T04:11:12.477Z,1.03
2018-12-19T04:13:40.832Z,1.20
2018-12-19T04:16:09.186Z,1.27
2018-12-19T04:18:37.642Z,1.17
2018-12-19T04:21:05.979Z,1.23
2018-12-19T04:23:34.345Z,1.20
2018-12-19T04:26:02.689Z,1.00
2018-12-19T04:28:31.060Z,1.20
2018-12-19T04:30:59.544Z,1.27
2018-12-19T04:33:28.151Z,1.13
2018-12-19T04:35:56.728Z,1.30
2018-12-19T04:38:25.651Z,1.50
2018-12-19T04:40:54.027Z,1.20
2018-12-19T04:43:22.377Z,1.20
2018-12-19T04:45:50.750Z,1.60
2018-12-19T04:48:19.150Z,1.20
2018-12-19T04:50:47.582Z,1.00
2018-12-19T04:53:15.943Z,1.40
2018-12-19T04:55:44.297Z,1.00
2018-12-19T04:58:12.662Z,1.20
2018-12-19T05:00:41.026Z,1.40
2018-12-19T05:03:09.440Z,1.27
2018-12-19T05:05:37.771Z,1.30
2018-12-19T05:08:06.123Z,1.37
2018-12-19T05:10:34.488Z,1.20
2018-12-19T05:13:02.841Z,1.10
2018-12-19T05:15:31.215Z,1.03
2018-12-19T05:17:59.578Z,1.27
2018-12-19T05:20:27.913Z,1.10
2018-12-19T05:22:56.283Z,1.23
2018-12-19T05:25:24.639Z,1.20
2018-12-19T05:27:52.984Z,1.20
2018-12-19T05:30:21.359Z,1.23
2018-12-19T05:32:49.716Z,1.13
2018-12-19T05:35:18.083Z,1.27
2018-12-19T05:37:46.430Z,1.37
2018-12-19T05:40:18.930Z,1.10
2018-12-19T05:42:45.135Z,1.30
2018-12-19T05:45:13.487Z,3.00
2018-12-19T05:47:42.370Z,4.37
2018-12-19T05:50:11.055Z,3.97
2018-12-19T05:52:39.419Z,3.73
2018-12-19T05:55:07.772Z,3.67
2018-12-19T05:57:36.284Z,3.90
2018-12-19T06:00:05.795Z,4.83
2018-12-19T06:02:34.153Z,3.87
2018-12-19T06:05:02.519Z,4.03
2018-12-19T06:07:30.906Z,3.87
2018-12-19T06:09:59.269Z,3.73
2018-12-19T06:12:27.603Z,3.60
2018-12-19T06:14:56.066Z,4.07
2018-12-19T06:17:24.452Z,3.90
2018-12-19T06:19:52.813Z,3.60
2018-12-19T06:22:21.191Z,4.20
2018-12-19T06:24:53.523Z,3.60
2018-12-19T06:27:21.923Z,4.57
2018-12-19T06:29:50.276Z,3.90
2018-12-19T06:32:18.611Z,4.30
2018-12-19T06:34:46.964Z,4.57
2018-12-19T06:37:15.319Z,4.67
2018-12-19T06:39:43.675Z,4.03
2018-12-19T06:42:12.934Z,4.40
2018-12-19T06:44:41.434Z,4.20
2018-12-19T06:47:09.801Z,4.80
2018-12-19T06:49:38.191Z,3.90
2018-12-19T06:52:06.551Z,3.90
2018-12-19T06:54:34.896Z,4.37
2018-12-19T06:57:03.243Z,4.30
2018-12-19T06:59:31.591Z,4.40
2018-12-19T07:01:59.994Z,4.13
2018-12-19T07:04:28.340Z,4.97
2018-12-19T07:06:56.694Z,5.23
2018-12-19T07:09:25.208Z,5.87
2018-12-19T07:11:53.589Z,5.23
2018-12-19T07:14:21.951Z,4.20
2018-12-19T07:16:50.310Z,4.43
2018-12-19T07:19:18.682Z,4.73
2018-12-19T07:21:47.027Z,3.83
2018-12-19T07:24:15.405Z,5.03
2018-12-19T07:26:43.756Z,4.80
2018-12-19T07:29:12.108Z,4.80
2018-12-19T07:31:40.435Z,4.23
2018-12-19T07:34:08.778Z,4.50
2018-12-19T07:36:37.142Z,4.43
2018-12-19T07:39:07.274Z,4.27
2018-12-19T07:41:35.802Z,4.50
2018-12-19T07:44:04.357Z,4.40
2018-12-19T07:46:32.858Z,4.57
2018-12-19T07:49:01.205Z,4.73
2018-12-19T07:51:29.625Z,3.80
2018-12-19T07:55:01.045Z,4.27
2018-12-19T07:57:29.458Z,4.80
2018-12-19T07:59:57.811Z,4.10
2018-12-19T08:02:26.159Z,3.83
2018-12-19T08:04:54.643Z,4.20
2018-12-19T08:07:23.001Z,3.43
2018-12-19T08:09:51.353Z,3.37
2018-12-19T08:12:19.729Z,3.70
2018-12-19T08:14:50.088Z,3.80
2018-12-19T08:17:18.447Z,3.80
2018-12-19T08:19:46.816Z,3.90
2018-12-19T08:22:15.197Z,3.20
2018-12-19T08:24:43.586Z,3.67
2018-12-19T08:27:11.928Z,3.60
2018-12-19T08:29:40.350Z,3.30
2018-12-19T08:32:08.690Z,3.87
2018-12-19T08:34:37.130Z,3.17
2018-12-19T08:37:05.599Z,3.20
2018-12-19T08:39:34.280Z,3.03
2018-12-19T08:42:02.767Z,3.63
2018-12-19T08:44:31.115Z,3.00
2018-12-19T08:46:59.468Z,3.13
2018-12-19T08:49:27.869Z,2.80
2018-12-19T08:51:56.212Z,3.10
2018-12-19T08:54:24.661Z,3.10
2018-12-19T08:56:53.126Z,2.80
2018-12-19T08:59:21.505Z,2.97
2018-12-19T09:01:49.881Z,3.50
2018-12-19T09:04:18.238Z,3.13
2018-12-19T09:06:46.575Z,2.53
2018-12-19T09:09:14.922Z,2.67
2018-12-19T09:11:43.291Z,2.87
2018-12-19T09:14:11.629Z,2.57
2018-12-19T09:16:39.990Z,3.17
2018-12-19T09:19:08.358Z,2.63
2018-12-19T09:21:36.722Z,2.90
2018-12-19T09:24:05.067Z,2.60
2018-12-19T09:26:33.448Z,2.50
2018-12-19T09:29:01.816Z,2.40
2018-12-19T09:31:30.193Z,3.07
2018-12-19T09:33:58.547Z,2.90
2018-12-19T09:36:26.890Z,2.37
2018-12-19T09:38:55.261Z,2.90
2018-12-19T09:41:23.599Z,2.60
2018-12-19T09:43:51.975Z,2.57
2018-12-19T09:46:20.312Z,2.47
2018-12-19T09:48:48.677Z,2.70
2018-12-19T09:51:17.044Z,2.33
2018-12-19T09:53:45.402Z,2.40
2018-12-19T09:56:14.216Z,2.60
2018-12-19T09:58:42.571Z,2.20
2018-12-19T10:01:10.948Z,2.50
2018-12-19T10:03:39.304Z,2.47
2018-12-19T10:06:07.646Z,2.30
2018-12-19T10:08:35.989Z,2.07
2018-12-19T10:11:04.332Z,2.07
2018-12-19T10:13:32.681Z,2.37
2018-12-19T10:16:01.058Z,2.17
2018-12-19T10:18:29.407Z,2.70
2018-12-19T10:20:57.765Z,2.23
2018-12-19T10:23:26.109Z,2.30
2018-12-19T10:25:59.964Z,2.50
2018-12-19T10:28:35.279Z,2.20
2018-12-19T10:31:04.047Z,1.90
2018-12-19T10:33:32.383Z,1.90
2018-12-19T10:36:00.860Z,2.20
2018-12-19T10:38:29.250Z,2.20
2018-12-19T10:40:57.630Z,2.40
2018-12-19T10:43:25.967Z,2.20
2018-12-19T10:45:54.331Z,1.80
2018-12-19T10:48:22.686Z,1.90
2018-12-19T10:51:21.822Z,1.60
2018-12-19T10:53:50.194Z,1.97
2018-12-19T10:56:19.440Z,2.00
2018-12-19T10:58:48.074Z,1.83
2018-12-19T11:01:17.069Z,1.80
2018-12-19T11:03:45.523Z,1.80
2018-12-19T11:06:13.886Z,1.70
2018-12-19T11:08:42.250Z,1.70
2018-12-19T11:11:10.635Z,2.03
2018-12-19T11:13:38.991Z,1.83
2018-12-19T11:16:07.344Z,1.60
2018-12-19T11:18:35.702Z,1.93
2018-12-19T11:21:04.183Z,1.70
2018-12-19T11:23:32.556Z,2.10
2018-12-19T11:26:00.914Z,1.80
2018-12-19T11:28:29.290Z,1.83
2018-12-19T11:30:57.663Z,1.87
2018-12-19T11:33:26.070Z,1.80
2018-12-19T11:35:55.186Z,1.50
2018-12-19T11:38:23.703Z,1.57
2018-12-19T11:40:52.074Z,1.70
2018-12-19T11:43:20.742Z,1.60
2018-12-19T11:45:49.142Z,1.73
2018-12-19T11:48:17.514Z,1.40
2018-12-19T11:50:45.972Z,1.40
2018-12-19T11:53:14.336Z,1.80
2018-12-19T11:55:42.714Z,1.30
2018-12-19T11:58:11.053Z,1.37
2018-12-19T12:00:39.407Z,1.60
2018-12-19T12:03:07.757Z,1.43
2018-12-19T12:05:36.135Z,1.50
2018-12-19T12:08:04.512Z,1.50
2018-12-19T12:10:32.876Z,1.43
2018-12-19T12:13:01.251Z,1.53
2018-12-19T12:15:29.620Z,1.50
2018-12-19T12:17:58.008Z,1.40
2018-12-19T12:20:26.362Z,1.80
2018-12-19T12:22:54.720Z,1.40
2018-12-19T12:25:23.068Z,1.67
2018-12-19T12:27:51.423Z,1.30
2018-12-19T12:30:19.822Z,1.20
2018-12-19T12:33:18.930Z,1.27
2018-12-19T12:35:47.506Z,1.03
2018-12-19T12:38:15.871Z,1.57
2018-12-19T12:40:44.531Z,2.00
2018-12-19T12:43:12.909Z,1.33
2018-12-19T12:45:41.268Z,1.33
2018-12-19T12:48:09.626Z,1.53
2018-12-19T12:50:37.999Z,1.60
2018-12-19T12:53:06.364Z,1.50
2018-12-19T12:55:34.738Z,1.37
2018-12-19T12:58:03.134Z,1.33
2018-12-19T13:00:31.499Z,1.20
2018-12-19T13:02:59.870Z,1.37
2018-12-19T13:05:28.232Z,1.00
2018-12-19T13:07:56.586Z,1.43
2018-12-19T13:10:24.923Z,1.40
2018-12-19T13:12:53.283Z,1.23
2018-12-19T13:15:27.192Z,1.40
2018-12-19T13:17:55.854Z,1.27
2018-12-19T13:20:24.211Z,1.50
2018-12-19T13:22:52.555Z,1.17
2018-12-19T13:25:20.909Z,1.30
2018-12-19T13:27:49.627Z,1.17
2018-12-19T13:30:17.999Z,1.10
2018-12-19T13:32:46.367Z,0.97
2018-12-19T13:35:14.746Z,0.97
2018-12-19T13:37:43.126Z,0.90
2018-12-19T13:40:11.508Z,1.43
2018-12-19T13:42:39.910Z,1.10
2018-12-19T13:45:08.457Z,1.30
2018-12-19T13:47:36.827Z,1.33
2018-12-19T13:50:05.702Z,1.30
2018-12-19T13:52:34.211Z,1.13
2018-12-19T13:55:02.591Z,1.30
2018-12-19T13:57:30.978Z,1.10
2018-12-19T13:59:59.331Z,1.10
2018-12-19T14:02:27.683Z,0.90
2018-12-19T14:04:56.052Z,0.93
2018-12-19T14:07:24.489Z,1.03
2018-12-19T14:09:53.079Z,1.07
2018-12-19T14:12:21.428Z,1.20
2018-12-19T14:14:49.763Z,1.10
2018-12-19T14:17:18.139Z,1.57
2018-12-19T14:19:46.495Z,0.90
2018-12-19T14:22:14.855Z,1.20
2018-12-19T14:24:43.240Z,0.90
2018-12-19T14:27:11.615Z,0.93
2018-12-19T14:29:39.978Z,1.10
2018-12-19T14:32:08.338Z,0.90
2018-12-19T14:34:36.764Z,1.07
2018-12-19T14:37:05.107Z,1.13
2018-12-19T14:39:33.482Z,1.10
2018-12-19T14:42:01.831Z,1.00
2018-12-19T14:44:30.234Z,0.80
2018-12-19T14:46:58.608Z,0.73
2018-12-19T14:49:26.951Z,1.00
2018-12-19T14:51:55.300Z,1.20
2018-12-19T14:54:23.664Z,1.00
2018-12-19T14:56:52.023Z,1.00
2018-12-19T14:59:20.383Z,0.80
2018-12-19T15:01:48.740Z,1.00
2018-12-19T15:04:17.118Z,0.90
2018-12-19T15:06:45.480Z,1.10
2018-12-19T15:09:13.840Z,0.87
2018-12-19T15:11:42.218Z,1.10
2018-12-19T15:14:10.572Z,1.00
2018-12-19T15:16:39.023Z,0.90
2018-12-19T15:19:07.386Z,0.80
2018-12-19T15:21:35.784Z,1.10
2018-12-19T15:24:04.147Z,1.13
2018-12-19T15:26:32.502Z,1.00
2018-12-19T15:29:00.882Z,1.00
2018-12-19T15:31:29.239Z,1.10
2018-12-19T15:33:57.595Z,0.97
2018-12-19T15:36:26.256Z,0.90
2018-12-19T15:38:54.630Z,0.80
2018-12-19T15:41:22.995Z,0.80
2018-12-19T15:43:51.367Z,1.10
2018-12-19T15:46:50.212Z,1.00
2018-12-19T15:49:18.594Z,0.83
2018-12-19T15:51:46.957Z,1.00
2018-12-19T15:54:15.330Z,0.80
2018-12-19T15:56:44.515Z,0.90
2018-12-19T15:59:12.890Z,0.97
2018-12-19T16:01:41.223Z,0.90
2018-12-19T16:04:09.588Z,1.00
2018-12-19T16:06:37.946Z,1.00
2018-12-19T16:09:07.266Z,0.87
2018-12-19T16:11:35.637Z,0.90
2018-12-19T16:14:06.545Z,0.90
2018-12-19T16:16:34.897Z,1.77
2018-12-19T16:19:03.265Z,1.30
2018-12-19T16:21:31.656Z,1.47
2018-12-19T16:24:00.027Z,2.40
2018-12-19T16:26:28.406Z,2.60
2018-12-19T16:28:56.760Z,2.03
2018-12-19T16:31:25.204Z,1.60
2018-12-19T16:33:54.975Z,1.73
2018-12-19T16:36:23.363Z,1.97
2018-12-19T16:38:51.734Z,1.60
2018-12-19T16:41:20.159Z,1.77
2018-12-19T16:43:48.587Z,2.90
2018-12-19T16:46:16.967Z,1.47
2018-12-19T16:48:45.374Z,1.93
2018-12-19T16:51:13.808Z,2.07
2018-12-19T16:53:42.224Z,1.27
2018-12-19T16:56:10.663Z,2.00
2018-12-19T16:58:39.038Z,1.60
2018-12-19T17:01:07.422Z,1.50
2018-12-19T17:03:36.089Z,2.93
2018-12-19T17:06:04.456Z,1.20
2018-12-19T17:08:32.825Z,1.23
2018-12-19T17:11:01.320Z,1.67
2018-12-19T17:13:29.792Z,1.87
2018-12-19T17:15:58.181Z,1.40
2018-12-19T17:18:26.571Z,1.20
2018-12-19T17:20:55.004Z,1.80
2018-12-19T17:23:23.526Z,1.73
2018-12-19T17:25:59.412Z,1.60
2018-12-19T17:28:27.881Z,2.03
2018-12-19T17:30:56.355Z,1.30
2018-12-19T17:33:24.827Z,1.50
2018-12-19T17:35:54.277Z,3.17
2018-12-19T17:38:22.651Z,29.97
2018-12-19T17:40:51.023Z,59.00
2018-12-19T17:43:19.428Z,46.33
2018-12-19T17:45:47.892Z,40.20
2018-12-19T17:48:16.252Z,37.50
2018-12-19T17:50:44.683Z,36.17
2018-12-19T17:53:13.201Z,32.77
2018-12-19T17:55:41.593Z,33.90
2018-12-19T17:58:09.983Z,31.37
2018-12-19T18:00:38.488Z,31.27
2018-12-19T18:03:07.572Z,28.13
2018-12-19T18:05:36.046Z,24.93
2018-12-19T18:08:04.424Z,24.47
2018-12-19T18:10:32.824Z,24.10
2018-12-19T18:13:06.134Z,24.80
2018-12-19T18:15:31.586Z,24.60
2018-12-19T18:18:00.014Z,23.77
2018-12-19T18:20:28.390Z,22.93
2018-12-19T18:22:56.764Z,23.13
2018-12-19T18:25:25.260Z,21.07
2018-12-19T18:27:53.644Z,21.70
2018-12-19T18:30:22.004Z,22.20
2018-12-19T18:32:50.372Z,18.90
2018-12-19T18:35:18.825Z,21.30
2018-12-19T18:37:47.304Z,21.30
2018-12-19T18:40:15.730Z,18.50
2018-12-19T18:42:44.087Z,17.83
2018-12-19T18:45:12.435Z,15.17
2018-12-19T18:47:40.820Z,15.73
2018-12-19T18:50:09.187Z,14.63
2018-12-19T18:52:37.566Z,12.57
2018-12-19T18:55:06.635Z,12.47
2018-12-19T18:57:38.379Z,13.30
2018-12-19T19:00:10.686Z,11.17
2018-12-19T19:02:41.429Z,11.97
2018-12-19T19:05:12.438Z,11.93
2018-12-19T19:07:40.806Z,11.57
2018-12-19T19:10:09.209Z,10.63
2018-12-19T19:12:37.575Z,11.33
2018-12-19T19:15:06.717Z,10.43
2018-12-19T19:17:35.191Z,9.53
2018-12-19T19:20:03.588Z,10.47
2018-12-19T19:22:31.935Z,10.07
2018-12-19T19:25:00.298Z,10.30
2018-12-19T19:27:28.663Z,9.17
2018-12-19T19:29:57.244Z,8.40
2018-12-19T19:32:25.624Z,8.63
2018-12-19T19:34:54.028Z,9.23
2018-12-19T19:37:22.400Z,9.60
2018-12-19T19:39:50.956Z,9.73
2018-12-19T19:42:19.553Z,8.27
2018-12-19T19:44:48.000Z,8.27
2018-12-19T19:47:16.380Z,8.77
2018-12-19T19:49:46.013Z,7.70
2018-12-19T19:52:14.574Z,8.47
2018-12-19T19:54:42.942Z,7.53
2018-12-19T19:57:11.737Z,7.20
2018-12-19T19:59:40.320Z,6.80
2018-12-19T20:02:08.900Z,5.80
2018-12-19T20:04:37.276Z,5.23
2018-12-19T20:07:05.788Z,5.27
2018-12-19T20:09:34.375Z,5.63
2018-12-19T20:12:02.771Z,5.87
2018-12-19T20:14:31.152Z,5.63
2018-12-19T20:17:02.048Z,4.93
2018-12-19T20:19:30.832Z,4.90
2018-12-19T20:21:59.192Z,5.00
2018-12-19T20:24:27.919Z,4.90
2018-12-19T20:26:56.365Z,4.80
2018-12-19T20:29:24.734Z,5.00
2018-12-19T20:31:53.919Z,4.80
2018-12-19T20:34:23.060Z,5.40
2018-12-19T20:36:51.463Z,4.07
2018-12-19T20:39:19.814Z,4.20
2018-12-19T20:41:48.161Z,3.80
2018-12-19T20:44:16.529Z,4.70
2018-12-19T20:46:45.046Z,4.57
2018-12-19T20:49:13.392Z,3.57
2018-12-19T20:51:42.366Z,4.33
2018-12-19T20:54:10.727Z,4.30
2018-12-19T20:56:39.149Z,3.50
2018-12-19T20:59:07.660Z,4.20
2018-12-19T21:01:36.179Z,4.30
2018-12-19T21:04:04.804Z,3.53
2018-12-19T21:06:33.177Z,3.50
2018-12-19T21:09:01.527Z,3.53
2018-12-19T21:11:29.890Z,3.83
2018-12-19T21:13:58.240Z,3.00
2018-12-19T21:16:32.747Z,3.07
2018-12-19T21:19:01.091Z,3.20
2018-12-19T21:21:29.491Z,2.90
2018-12-19T21:23:57.832Z,3.20
2018-12-19T21:26:26.163Z,3.17
2018-12-19T21:32:25.766Z,3.03
2018-12-19T21:34:54.135Z,3.40
2018-12-19T21:37:22.499Z,3.23
2018-12-19T21:39:50.868Z,2.93
2018-12-19T21:42:19.254Z,2.60
2018-12-19T21:44:47.612Z,2.77
2018-12-19T21:47:15.953Z,2.80
2018-12-19T21:49:44.342Z,2.53
2018-12-19T21:52:12.691Z,2.80
2018-12-19T21:54:41.181Z,2.37
2018-12-19T21:57:09.550Z,2.50
2018-12-19T21:59:37.971Z,2.50
2018-12-19T22:02:06.455Z,2.60
2018-12-19T22:04:35.076Z,2.67
2018-12-19T22:07:03.566Z,2.70
2018-12-19T22:09:32.122Z,2.07
2018-12-19T22:12:01.585Z,2.57
2018-12-19T22:14:30.051Z,2.53
2018-12-19T22:17:03.755Z,2.53
2018-12-19T22:19:32.257Z,3.23
2018-12-19T22:22:00.640Z,2.37
2018-12-19T22:24:29.033Z,2.17
2018-12-19T22:26:57.367Z,2.27
2018-12-19T22:29:26.180Z,2.37
2018-12-19T22:31:54.534Z,2.63
2018-12-19T22:34:22.888Z,2.30
2018-12-19T22:36:51.304Z,2.10
2018-12-19T22:39:19.782Z,2.20
2018-12-19T22:41:48.230Z,2.23
2018-12-19T22:44:16.579Z,2.00
2018-12-19T22:46:44.913Z,2.10
2018-12-19T22:49:13.312Z,2.10
2018-12-19T22:51:41.750Z,2.03
2018-12-19T22:54:10.124Z,2.33
2018-12-19T22:56:38.476Z,2.53
2018-12-19T22:59:06.921Z,1.87
2018-12-19T23:01:40.769Z,2.07
2018-12-19T23:04:09.326Z,2.20
2018-12-19T23:06:37.794Z,2.20
2018-12-19T23:09:07.147Z,1.97
2018-12-19T23:11:35.960Z,2.13
2018-12-19T23:14:04.601Z,2.20
2018-12-19T23:16:33.025Z,2.17
2018-12-19T23:19:01.698Z,2.10
2018-12-19T23:21:30.195Z,2.10
2018-12-19T23:23:58.580Z,1.80
2018-12-19T23:26:26.938Z,2.27
2018-12-19T23:29:00.695Z,1.90
2018-12-19T23:31:29.154Z,1.93
2018-12-19T23:33:57.638Z,1.97
2018-12-19T23:36:26.042Z,2.03
2018-12-19T23:38:54.407Z,1.97
2018-12-19T23:41:22.775Z,2.10
2018-12-19T23:43:51.137Z,2.20
2018-12-19T23:46:22.457Z,2.30
2018-12-19T23:48:50.975Z,1.93
2018-12-19T23:51:19.447Z,1.80
2018-12-19T23:53:47.921Z,2.07
2018-12-19T23:56:16.480Z,1.87
2018-12-19T23:58:45.004Z,1.87
